Metar Propers

 

LEPA - Palma De Mallorc, Spain
Distància des de l'estació: ONO 38km
Actualització: 25/01/2021 10:00
Alguns núvols
Alguns núvols
 Vent del OSO
Vent: OSO 13 km/h
Temperatura: 14°C
Rosada: 9°C
Humitat: 72%
Baròmetre: 1011 hPa
Nuvolositat: Alguns núvols
Visibilitat: 10 km
Detalls nuvolositat: Alguns núvols 762 m
2021/01/25 09:00 LEPA 250900Z 25007KT 230V290 9999 FEW025 14/09 Q1011 NOSIG
LEMH - Mahon/Menorca Is, Spain
Distància des de l'estació: ENE 105km
Actualització: 25/01/2021 10:00
Seré
Seré
 Vent del OSO
Vent: OSO 17 km/h
Temperatura: 13°C
Rosada: 8°C
Humitat: 72%
Baròmetre: 1010 hPa
Resum: Seré
Visibilitat: major de 10 km
2021/01/25 09:00 LEMH 250900Z 24009KT 210V280 CAVOK 13/08 Q1010
 
LEIB - Ibiza/Es Codola, Spain
Distància des de l'estació: OSO 165km
Actualització: 25/01/2021 10:00
Seré
Seré
 Vent del SO
Vent: SO 15 km/h
Temperatura: 15°C
Rosada: 11°C
Humitat: 77%
Baròmetre: 1012 hPa
Resum: Seré
Visibilitat: major de 10 km
2021/01/25 09:00 LEIB 250900Z 22008KT CAVOK 15/11 Q1012 NOSIG
LEBL - Barcelona Airpor, Spain
Distància des de l'estació: NNO 225km
Actualització: 25/01/2021 10:00
Alguns núvols
Alguns núvols
 Vent del O
Vent: O 20 km/h
Temperatura: 13°C
Rosada: 5°C
Humitat: 59%
Baròmetre: 1008 hPa
Nuvolositat: Alguns núvols
Visibilitat: 10 km
Detalls nuvolositat: Alguns núvols 1067 m
2021/01/25 09:00 LEBL 250900Z 26011KT 9999 FEW035 13/05 Q1008 NOSIG
 
LELL - Sabadell, Spain
Distància des de l'estació: NNO 249km
Actualització: 25/01/2021 10:00
Seré
Seré
 Vent del O
Vent: O 7 km/h
Temperatura: 10°C
Sensació: 9°C
Rosada: 5°C
Humitat: 71%
Baròmetre: 1008 hPa
Resum: Seré
Visibilitat: major de 10 km
2021/01/25 09:00 LELL 250900Z 27004KT 240V320 CAVOK 10/05 Q1008
LERS - Reus (civ/Mil), Spain
Distància des de l'estació: NO 254km
Actualització: 25/01/2021 10:00
Molt cobert
Molt cobert
 Vent del OSO
Vent: OSO 15 km/h
Temperatura: 12°C
Rosada: 5°C
Humitat: 63%
Baròmetre: 1009 hPa
Nuvolositat: Molt cobert
Visibilitat: 10 km
Detalls nuvolositat: Parcialment cobert 1219 m
Molt cobert 1524 m
2021/01/25 09:00 LERS 250900Z 25008KT 9999 SCT040 BKN050 12/05 Q1009
 
LEGE - Gerona/Costa Bra, Spain
Distància des de l'estació: N 276km
Actualització: 25/01/2021 10:00
Alguns núvols
Alguns núvols
 Vent del varies
Vent: varies 2 km/h
Temperatura: 4°C
Rosada: 2°C
Humitat: 87%
Baròmetre: 1007 hPa
Nuvolositat: Alguns núvols
Visibilitat: 10 km
Detalls nuvolositat: Alguns núvols 1219 m
2021/01/25 09:00 LEGE 250900Z VRB01KT 9999 FEW040 04/02 Q1007
LEVC - Valencia (civ/Mi, Spain
Distància des de l'estació: O 310km
Actualització: 25/01/2021 10:00
Alguns núvols
Alguns núvols
 Vent del O
Vent: O 39 km/h, Ràfega: 57 km/h
Temperatura: 16°C
Rosada: 9°C
Humitat: 63%
Baròmetre: 1010 hPa
Nuvolositat: Alguns núvols
Visibilitat: 10 km
Detalls nuvolositat: Alguns núvols 762 m
2021/01/25 09:00 LEVC 250900Z 26021G31KT 9999 FEW025 16/09 Q1010 NOSIG
 
LEAL - Alicante/El Alte, Spain
Distància des de l'estació: OSO 344km
Actualització: 25/01/2021 10:00
Seré
Seré
 Vent del O
Vent: O 22 km/h
Temperatura: 16°C
Rosada: 5°C
Humitat: 48%
Baròmetre: 1013 hPa
Resum: Seré
Visibilitat: major de 10 km
2021/01/25 09:00 LEAL 250900Z 26012KT 230V290 CAVOK 16/05 Q1013 NOSIG
LELC - San Javier(Mil/C, Spain
Distància des de l'estació: OSO 389km
Actualització: 25/01/2021 10:00
Seré
Seré
 Vent del OSO
Vent: OSO 13 km/h
Temperatura: 15°C
Rosada: 8°C
Humitat: 63%
Baròmetre: 1014 hPa
Resum: Seré
Visibilitat: major de 10 km
2021/01/25 09:00 LELC 250900Z 24007KT CAVOK 15/08 Q1014 NOSIG
 
LEZG - Zaragoza (mil/Ci, Spain
Distància des de l'estació: NO 431km
Actualització: 25/01/2021 10:21
Light drizzle, Mist, Tapat
Light drizzle, Mist, Tapat
 Vent del calm
Vent: Calma
Temperatura: 9°C
Rosada: 8°C
Humitat: 94%
Baròmetre: 1009 hPa
Resum: Light drizzle, Mist
Nuvolositat: Tapat
Visibilitat: 3 km
Detalls nuvolositat: Parcialment cobert 122 m
Molt cobert 244 m
Tapat 762 m
2021/01/25 09:21 LEZG 250921Z 00000KT 3200 -DZ BR SCT004 BKN008 OVC025 09/08 Q1009
LEMD - Madrid/Barajas, Spain
Distància des de l'estació: ONO 234km
Actualització: 25/01/2021 10:00
Molt cobert
Molt cobert
 Vent del SO
Vent: SO 26 km/h, Ràfega: 44 km/h
Temperatura: 11°C
Rosada: 9°C
Humitat: 88%
Baròmetre: 1012 hPa
Nuvolositat: Molt cobert
Visibilitat: 10 km
Detalls nuvolositat: Molt cobert 366 m
2021/01/25 09:00 LEMD 250900Z 22014G24KT 9999 BKN012 11/09 Q1012 NOSIG
 
LEGR - Granada Airport, Spain
Distància des de l'estació: OSO 62km
Actualització: 25/01/2021 10:18
Light drizzle, Molt cobert
Light drizzle, Molt cobert
 Vent del calm
Vent: Calma
Temperatura: 9°C
Rosada: 9°C
Humitat: 100%
Baròmetre: 1020 hPa
Resum: Light Drizzle
Nuvolositat: Molt cobert
Visibilitat: 6 km
Detalls nuvolositat: Parcialment cobert 152 m
Molt cobert 427 m
2021/01/25 09:18 LEGR 250918Z 00000KT 6000 -DZ SCT005 BKN014 09/09 Q1020 REDZ